sensor_id;sensor_type;location;lat;lon;timestamp;pressure;altitude;pressure_sealevel;temperature;humidity
75221;BME280;63802;53.232;6.570;2022-11-27T00:01:51;102540.66;;;5.72;95.50
75221;BME280;63802;53.232;6.570;2022-11-27T00:04:17;102545.03;;;5.68;94.97
75221;BME280;63802;53.232;6.570;2022-11-27T00:06:43;102541.00;;;5.66;95.12
75221;BME280;63802;53.232;6.570;2022-11-27T00:09:14;102553.38;;;5.72;95.28
75221;BME280;63802;53.232;6.570;2022-11-27T00:11:40;102535.84;;;5.64;95.05
75221;BME280;63802;53.232;6.570;2022-11-27T00:14:14;102531.19;;;5.70;95.05
75221;BME280;63802;53.232;6.570;2022-11-27T00:16:42;102520.88;;;5.72;95.02
75221;BME280;63802;53.232;6.570;2022-11-27T00:19:09;102530.13;;;5.71;94.81
75221;BME280;63802;53.232;6.570;2022-11-27T00:21:35;102532.28;;;5.69;94.98
75221;BME280;63802;53.232;6.570;2022-11-27T00:24:02;102529.88;;;5.67;95.29
75221;BME280;63802;53.232;6.570;2022-11-27T00:26:29;102523.63;;;5.67;94.65
75221;BME280;63802;53.232;6.570;2022-11-27T00:28:55;102529.66;;;5.64;95.02
75221;BME280;63802;53.232;6.570;2022-11-27T00:31:23;102529.97;;;5.57;94.78
75221;BME280;63802;53.232;6.570;2022-11-27T00:33:56;102522.13;;;5.56;94.86
75221;BME280;63802;53.232;6.570;2022-11-27T00:36:22;102517.34;;;5.48;95.07
75221;BME280;63802;53.232;6.570;2022-11-27T00:38:47;102512.09;;;5.32;94.58
75221;BME280;63802;53.232;6.570;2022-11-27T00:41:15;102522.94;;;5.32;94.54
75221;BME280;63802;53.232;6.570;2022-11-27T00:43:41;102532.59;;;5.38;94.86
75221;BME280;63802;53.232;6.570;2022-11-27T00:46:06;102525.56;;;5.37;94.97
75221;BME280;63802;53.232;6.570;2022-11-27T00:48:32;102505.16;;;5.21;94.56
75221;BME280;63802;53.232;6.570;2022-11-27T00:51:04;102508.91;;;5.25;94.89
75221;BME280;63802;53.232;6.570;2022-11-27T00:53:31;102534.31;;;5.29;94.50
75221;BME280;63802;53.232;6.570;2022-11-27T00:55:56;102531.84;;;5.33;94.52
75221;BME280;63802;53.232;6.570;2022-11-27T00:58:22;102530.19;;;5.37;94.64
75221;BME280;63802;53.232;6.570;2022-11-27T01:01:18;102529.06;;;5.38;94.28
75221;BME280;63802;53.232;6.570;2022-11-27T01:03:45;102527.53;;;5.32;94.70
75221;BME280;63802;53.232;6.570;2022-11-27T01:06:12;102516.19;;;5.30;94.75
75221;BME280;63802;53.232;6.570;2022-11-27T01:08:38;102508.06;;;5.30;94.16
75221;BME280;63802;53.232;6.570;2022-11-27T01:11:03;102489.91;;;5.30;94.04
75221;BME280;63802;53.232;6.570;2022-11-27T01:13:32;102502.81;;;5.38;94.41
75221;BME280;63802;53.232;6.570;2022-11-27T01:16:12;102484.50;;;5.30;93.83
75221;BME280;63802;53.232;6.570;2022-11-27T01:18:39;102497.47;;;5.33;93.91
75221;BME280;63802;53.232;6.570;2022-11-27T01:21:05;102498.63;;;5.27;93.78
75221;BME280;63802;53.232;6.570;2022-11-27T01:23:31;102489.38;;;5.28;93.62
75221;BME280;63802;53.232;6.570;2022-11-27T01:25:59;102487.78;;;5.27;93.68
75221;BME280;63802;53.232;6.570;2022-11-27T01:28:25;102488.00;;;5.31;93.93
75221;BME280;63802;53.232;6.570;2022-11-27T01:30:50;102493.66;;;5.34;93.43
75221;BME280;63802;53.232;6.570;2022-11-27T01:33:17;102495.38;;;5.25;93.49
75221;BME280;63802;53.232;6.570;2022-11-27T01:35:42;102493.75;;;5.24;93.36
75221;BME280;63802;53.232;6.570;2022-11-27T01:38:08;102488.91;;;5.21;93.46
75221;BME280;63802;53.232;6.570;2022-11-27T01:40:33;102490.28;;;5.19;93.22
75221;BME280;63802;53.232;6.570;2022-11-27T01:42:59;102460.91;;;5.07;93.10
75221;BME280;63802;53.232;6.570;2022-11-27T01:45:24;102478.66;;;5.18;93.43
75221;BME280;63802;53.232;6.570;2022-11-27T01:47:53;102484.06;;;5.18;93.66
75221;BME280;63802;53.232;6.570;2022-11-27T01:50:30;102489.25;;;5.15;93.17
75221;BME280;63802;53.232;6.570;2022-11-27T01:53:16;102470.09;;;5.06;93.31
75221;BME280;63802;53.232;6.570;2022-11-27T01:55:49;102454.38;;;5.13;92.69
75221;BME280;63802;53.232;6.570;2022-11-27T01:58:26;102476.81;;;5.14;92.59
75221;BME280;63802;53.232;6.570;2022-11-27T02:00:52;102466.53;;;5.16;92.97
75221;BME280;63802;53.232;6.570;2022-11-27T02:03:18;102464.59;;;5.16;92.68
75221;BME280;63802;53.232;6.570;2022-11-27T02:05:43;102476.03;;;5.13;92.83
75221;BME280;63802;53.232;6.570;2022-11-27T02:08:11;102462.53;;;5.08;92.63
75221;BME280;63802;53.232;6.570;2022-11-27T02:13:36;102454.13;;;5.10;92.30
75221;BME280;63802;53.232;6.570;2022-11-27T02:16:17;102443.06;;;5.06;92.12
75221;BME280;63802;53.232;6.570;2022-11-27T02:21:46;102436.84;;;5.06;92.31
75221;BME280;63802;53.232;6.570;2022-11-27T02:29:35;102413.28;;;5.06;92.26
75221;BME280;63802;53.232;6.570;2022-11-27T02:34:41;102429.16;;;5.18;91.50
75221;BME280;63802;53.232;6.570;2022-11-27T02:37:17;102390.56;;;5.07;91.31
75221;BME280;63802;53.232;6.570;2022-11-27T02:40:13;102417.53;;;5.17;91.39
75221;BME280;63802;53.232;6.570;2022-11-27T02:42:53;102403.22;;;5.12;91.56
75221;BME280;63802;53.232;6.570;2022-11-27T02:45:24;102408.66;;;5.12;91.33
75221;BME280;63802;53.232;6.570;2022-11-27T02:47:51;102405.53;;;5.23;90.96
75221;BME280;63802;53.232;6.570;2022-11-27T02:50:21;102387.34;;;5.05;90.99
75221;BME280;63802;53.232;6.570;2022-11-27T02:52:49;102394.72;;;5.23;91.31
75221;BME280;63802;53.232;6.570;2022-11-27T02:55:20;102392.56;;;5.25;91.01
75221;BME280;63802;53.232;6.570;2022-11-27T02:57:48;102390.56;;;5.31;90.67
75221;BME280;63802;53.232;6.570;2022-11-27T03:00:16;102396.22;;;5.34;90.66
75221;BME280;63802;53.232;6.570;2022-11-27T03:02:44;102374.13;;;5.27;90.57
75221;BME280;63802;53.232;6.570;2022-11-27T03:05:16;102379.97;;;5.34;90.30
75221;BME280;63802;53.232;6.570;2022-11-27T03:07:57;102371.19;;;5.42;90.39
75221;BME280;63802;53.232;6.570;2022-11-27T03:10:39;102371.75;;;5.45;89.61
75221;BME280;63802;53.232;6.570;2022-11-27T03:13:07;102355.56;;;5.39;89.71
75221;BME280;63802;53.232;6.570;2022-11-27T03:15:42;102362.00;;;5.43;89.38
75221;BME280;63802;53.232;6.570;2022-11-27T03:18:20;102358.78;;;5.41;89.54
75221;BME280;63802;53.232;6.570;2022-11-27T03:20:52;102350.09;;;5.45;89.58
75221;BME280;63802;53.232;6.570;2022-11-27T03:23:23;102355.41;;;5.50;88.66
75221;BME280;63802;53.232;6.570;2022-11-27T03:25:48;102361.44;;;5.47;88.75
75221;BME280;63802;53.232;6.570;2022-11-27T03:28:14;102358.72;;;5.47;88.77
75221;BME280;63802;53.232;6.570;2022-11-27T03:30:41;102351.94;;;5.49;88.56
75221;BME280;63802;53.232;6.570;2022-11-27T03:33:06;102352.19;;;5.48;88.48
75221;BME280;63802;53.232;6.570;2022-11-27T03:35:31;102346.56;;;5.44;88.93
75221;BME280;63802;53.232;6.570;2022-11-27T03:37:57;102351.16;;;5.43;88.73
75221;BME280;63802;53.232;6.570;2022-11-27T03:40:44;102360.03;;;5.49;88.47
75221;BME280;63802;53.232;6.570;2022-11-27T03:43:22;102356.47;;;5.54;88.38
75221;BME280;63802;53.232;6.570;2022-11-27T03:46:08;102362.09;;;5.57;88.11
75221;BME280;63802;53.232;6.570;2022-11-27T03:48:42;102346.22;;;5.51;87.83
75221;BME280;63802;53.232;6.570;2022-11-27T03:57:16;102324.91;;;5.44;87.85
75221;BME280;63802;53.232;6.570;2022-11-27T03:59:45;102311.66;;;5.42;88.04
75221;BME280;63802;53.232;6.570;2022-11-27T04:02:13;102311.88;;;5.46;88.00
75221;BME280;63802;53.232;6.570;2022-11-27T04:04:38;102308.88;;;5.48;87.71
75221;BME280;63802;53.232;6.570;2022-11-27T04:07:04;102305.16;;;5.43;87.58
75221;BME280;63802;53.232;6.570;2022-11-27T04:09:29;102314.91;;;5.45;87.57
75221;BME280;63802;53.232;6.570;2022-11-27T04:11:54;102303.09;;;5.35;87.81
75221;BME280;63802;53.232;6.570;2022-11-27T04:14:20;102327.31;;;5.46;87.58
75221;BME280;63802;53.232;6.570;2022-11-27T04:16:45;102318.91;;;5.47;87.31
75221;BME280;63802;53.232;6.570;2022-11-27T04:19:10;102304.84;;;5.45;87.14
75221;BME280;63802;53.232;6.570;2022-11-27T04:21:36;102312.69;;;5.47;87.32
75221;BME280;63802;53.232;6.570;2022-11-27T04:24:02;102316.50;;;5.46;87.03
75221;BME280;63802;53.232;6.570;2022-11-27T04:26:27;102298.78;;;5.34;87.21
75221;BME280;63802;53.232;6.570;2022-11-27T04:28:52;102303.59;;;5.37;87.33
75221;BME280;63802;53.232;6.570;2022-11-27T04:31:18;102292.47;;;5.20;87.26
75221;BME280;63802;53.232;6.570;2022-11-27T04:33:43;102313.84;;;5.40;86.87
75221;BME280;63802;53.232;6.570;2022-11-27T04:36:09;102300.38;;;5.35;87.62
75221;BME280;63802;53.232;6.570;2022-11-27T04:38:34;102294.00;;;5.26;87.19
75221;BME280;63802;53.232;6.570;2022-11-27T04:40:59;102297.16;;;5.33;87.02
75221;BME280;63802;53.232;6.570;2022-11-27T04:43:25;102297.28;;;5.23;87.22
75221;BME280;63802;53.232;6.570;2022-11-27T04:45:50;102312.88;;;5.31;87.26
75221;BME280;63802;53.232;6.570;2022-11-27T04:48:16;102307.53;;;5.26;87.50
75221;BME280;63802;53.232;6.570;2022-11-27T04:50:41;102312.88;;;5.31;87.32
75221;BME280;63802;53.232;6.570;2022-11-27T04:53:07;102321.00;;;5.31;87.50
75221;BME280;63802;53.232;6.570;2022-11-27T04:55:33;102322.09;;;5.30;87.44
75221;BME280;63802;53.232;6.570;2022-11-27T04:57:59;102312.50;;;5.19;87.66
75221;BME280;63802;53.232;6.570;2022-11-27T05:00:24;102314.28;;;5.29;87.56
75221;BME280;63802;53.232;6.570;2022-11-27T05:02:50;102314.13;;;5.20;87.46
75221;BME280;63802;53.232;6.570;2022-11-27T05:05:15;102310.88;;;5.18;87.64
75221;BME280;63802;53.232;6.570;2022-11-27T05:07:41;102297.50;;;5.08;87.43
75221;BME280;63802;53.232;6.570;2022-11-27T05:10:07;102319.53;;;5.20;87.50
75221;BME280;63802;53.232;6.570;2022-11-27T05:12:33;102316.53;;;5.22;87.71
75221;BME280;63802;53.232;6.570;2022-11-27T05:14:58;102313.06;;;5.16;87.57
75221;BME280;63802;53.232;6.570;2022-11-27T05:17:24;102301.22;;;5.12;87.67
75221;BME280;63802;53.232;6.570;2022-11-27T05:19:49;102282.97;;;4.99;87.60
75221;BME280;63802;53.232;6.570;2022-11-27T05:22:15;102283.38;;;5.11;87.58
75221;BME280;63802;53.232;6.570;2022-11-27T05:24:40;102251.75;;;4.88;87.67
75221;BME280;63802;53.232;6.570;2022-11-27T05:27:06;102286.69;;;5.08;87.73
75221;BME280;63802;53.232;6.570;2022-11-27T05:29:31;102287.00;;;5.02;88.11
75221;BME280;63802;53.232;6.570;2022-11-27T05:31:56;102274.88;;;4.99;87.90
75221;BME280;63802;53.232;6.570;2022-11-27T05:34:22;102265.22;;;4.93;88.15
75221;BME280;63802;53.232;6.570;2022-11-27T05:36:47;102274.88;;;4.99;88.30
75221;BME280;63802;53.232;6.570;2022-11-27T05:39:13;102260.25;;;5.00;87.78
75221;BME280;63802;53.232;6.570;2022-11-27T05:41:40;102262.72;;;4.97;87.89
75221;BME280;63802;53.232;6.570;2022-11-27T05:44:10;102270.06;;;4.96;88.29
75221;BME280;63802;53.232;6.570;2022-11-27T05:46:36;102271.66;;;4.97;88.03
75221;BME280;63802;53.232;6.570;2022-11-27T05:49:02;102281.09;;;5.00;87.69
75221;BME280;63802;53.232;6.570;2022-11-27T05:51:27;102270.56;;;4.98;87.81
75221;BME280;63802;53.232;6.570;2022-11-27T05:53:53;102265.66;;;5.00;87.81
75221;BME280;63802;53.232;6.570;2022-11-27T05:56:18;102261.88;;;5.01;87.82
75221;BME280;63802;53.232;6.570;2022-11-27T05:58:45;102261.88;;;5.01;87.62
75221;BME280;63802;53.232;6.570;2022-11-27T06:01:13;102229.66;;;4.81;87.32
75221;BME280;63802;53.232;6.570;2022-11-27T06:03:39;102257.03;;;4.98;87.60
75221;BME280;63802;53.232;6.570;2022-11-27T06:06:09;102260.25;;;5.00;87.76
75221;BME280;63802;53.232;6.570;2022-11-27T06:08:36;102258.41;;;4.96;87.46
75221;BME280;63802;53.232;6.570;2022-11-27T06:11:21;102257.91;;;4.94;87.56
75221;BME280;63802;53.232;6.570;2022-11-27T06:13:48;102266.19;;;5.02;87.19
75221;BME280;63802;53.232;6.570;2022-11-27T06:16:17;102252.44;;;4.99;87.38
75221;BME280;63802;53.232;6.570;2022-11-27T06:18:43;102250.00;;;4.97;87.17
75221;BME280;63802;53.232;6.570;2022-11-27T06:21:11;102250.75;;;5.03;87.31
75221;BME280;63802;53.232;6.570;2022-11-27T06:23:38;102234.28;;;4.99;86.90
75221;BME280;63802;53.232;6.570;2022-11-27T06:26:18;102247.25;;;5.02;87.05
75221;BME280;63802;53.232;6.570;2022-11-27T06:28:44;102242.94;;;5.01;87.19
75221;BME280;63802;53.232;6.570;2022-11-27T06:31:13;102248.06;;;5.03;86.75
75221;BME280;63802;53.232;6.570;2022-11-27T06:33:39;102245.66;;;5.01;86.68
75221;BME280;63802;53.232;6.570;2022-11-27T06:36:05;102250.38;;;5.09;86.54
75221;BME280;63802;53.232;6.570;2022-11-27T06:38:32;102254.47;;;5.07;86.50
75221;BME280;63802;53.232;6.570;2022-11-27T06:41:03;102236.41;;;5.02;86.93
75221;BME280;63802;53.232;6.570;2022-11-27T06:43:28;102236.06;;;5.09;86.36
75221;BME280;63802;53.232;6.570;2022-11-27T06:45:55;102226.63;;;5.06;86.22
75221;BME280;63802;53.232;6.570;2022-11-27T06:48:21;102230.44;;;5.24;85.55
75221;BME280;63802;53.232;6.570;2022-11-27T06:50:46;102231.56;;;5.23;85.25
75221;BME280;63802;53.232;6.570;2022-11-27T06:53:12;102225.34;;;5.22;85.45
75221;BME280;63802;53.232;6.570;2022-11-27T06:55:37;102221.06;;;5.16;85.26
75221;BME280;63802;53.232;6.570;2022-11-27T06:58:02;102219.41;;;5.20;85.06
75221;BME280;63802;53.232;6.570;2022-11-27T07:00:28;102212.44;;;5.14;85.05
75221;BME280;63802;53.232;6.570;2022-11-27T07:02:53;102223.72;;;5.21;85.26
75221;BME280;63802;53.232;6.570;2022-11-27T07:05:20;102222.69;;;5.17;85.03
75221;BME280;63802;53.232;6.570;2022-11-27T07:07:45;102222.19;;;5.15;85.22
75221;BME280;63802;53.232;6.570;2022-11-27T07:10:10;102225.41;;;5.17;84.94
75221;BME280;63802;53.232;6.570;2022-11-27T07:12:36;102220.06;;;5.12;85.19
75221;BME280;63802;53.232;6.570;2022-11-27T07:15:01;102229.25;;;5.11;84.96
75221;BME280;63802;53.232;6.570;2022-11-27T07:17:27;102237.81;;;5.18;85.08
75221;BME280;63802;53.232;6.570;2022-11-27T07:19:52;102233.72;;;5.21;85.21
75221;BME280;63802;53.232;6.570;2022-11-27T07:22:17;102228.19;;;5.12;85.09
75221;BME280;63802;53.232;6.570;2022-11-27T07:24:43;102231.38;;;5.14;85.07
75221;BME280;63802;53.232;6.570;2022-11-27T07:27:08;102210.38;;;5.06;84.95
75221;BME280;63802;53.232;6.570;2022-11-27T07:29:33;102225.41;;;5.17;85.02
75221;BME280;63802;53.232;6.570;2022-11-27T07:31:59;102224.28;;;5.18;85.20
75221;BME280;63802;53.232;6.570;2022-11-27T07:34:24;102207.09;;;5.09;84.81
75221;BME280;63802;53.232;6.570;2022-11-27T07:36:50;102215.66;;;5.16;84.84
75221;BME280;63802;53.232;6.570;2022-11-27T07:39:16;102212.44;;;5.14;85.42
75221;BME280;63802;53.232;6.570;2022-11-27T07:41:41;102188.31;;;4.99;84.98
75221;BME280;63802;53.232;6.570;2022-11-27T07:44:08;102207.03;;;5.14;85.25
75221;BME280;63802;53.232;6.570;2022-11-27T07:46:34;102195.63;;;5.17;85.12
75221;BME280;63802;53.232;6.570;2022-11-27T07:48:59;102193.44;;;5.19;85.25
75221;BME280;63802;53.232;6.570;2022-11-27T07:51:25;102179.41;;;5.17;84.86
75221;BME280;63802;53.232;6.570;2022-11-27T07:53:51;102172.31;;;5.21;85.09
75221;BME280;63802;53.232;6.570;2022-11-27T07:56:17;102180.72;;;5.20;84.65
75221;BME280;63802;53.232;6.570;2022-11-27T07:58:43;102150.28;;;5.09;84.73
75221;BME280;63802;53.232;6.570;2022-11-27T08:01:12;102174.44;;;5.24;84.84
75221;BME280;63802;53.232;6.570;2022-11-27T08:03:38;102173.25;;;5.30;84.90
75221;BME280;63802;53.232;6.570;2022-11-27T08:06:04;102169.94;;;5.33;84.68
75221;BME280;63802;53.232;6.570;2022-11-27T08:08:37;102170.47;;;5.35;84.62
75221;BME280;63802;53.232;6.570;2022-11-27T08:11:02;102165.84;;;5.36;84.73
75221;BME280;63802;53.232;6.570;2022-11-27T08:13:28;102152.41;;;5.31;84.62
75221;BME280;63802;53.232;6.570;2022-11-27T08:15:53;102170.09;;;5.42;84.79
75221;BME280;63802;53.232;6.570;2022-11-27T08:18:19;102158.03;;;5.34;84.34
75221;BME280;63802;53.232;6.570;2022-11-27T08:20:45;102164.25;;;5.35;84.04
75221;BME280;63802;53.232;6.570;2022-11-27T08:23:10;102182.84;;;5.41;84.38
75221;BME280;63802;53.232;6.570;2022-11-27T08:25:36;102171.06;;;5.32;84.18
75221;BME280;63802;53.232;6.570;2022-11-27T08:28:02;102181.22;;;5.40;84.40
75221;BME280;63802;53.232;6.570;2022-11-27T08:30:27;102184.72;;;5.41;84.04
75221;BME280;63802;53.232;6.570;2022-11-27T08:32:53;102158.78;;;5.21;84.42
75221;BME280;63802;53.232;6.570;2022-11-27T08:35:18;102178.66;;;5.30;84.46
75221;BME280;63802;53.232;6.570;2022-11-27T08:37:44;102171.56;;;5.34;84.28
75221;BME280;63802;53.232;6.570;2022-11-27T08:40:09;102177.25;;;5.33;84.56
75221;BME280;63802;53.232;6.570;2022-11-27T08:42:35;102170.75;;;5.34;84.67
75221;BME280;63802;53.232;6.570;2022-11-27T08:45:00;102158.19;;;5.24;84.71
75221;BME280;63802;53.232;6.570;2022-11-27T08:47:26;102157.97;;;5.21;84.70
75221;BME280;63802;53.232;6.570;2022-11-27T08:49:51;102158.69;;;5.26;84.80
75221;BME280;63802;53.232;6.570;2022-11-27T08:52:16;102169.88;;;5.38;84.33
75221;BME280;63802;53.232;6.570;2022-11-27T08:54:42;102138.25;;;5.20;84.52
75221;BME280;63802;53.232;6.570;2022-11-27T08:57:07;102128.72;;;5.23;84.66
75221;BME280;63802;53.232;6.570;2022-11-27T08:59:33;102146.59;;;5.37;84.95
75221;BME280;63802;53.232;6.570;2022-11-27T09:01:58;102125.78;;;5.19;84.74
75221;BME280;63802;53.232;6.570;2022-11-27T09:04:23;102134.84;;;5.28;84.96
75221;BME280;63802;53.232;6.570;2022-11-27T09:06:49;102146.41;;;5.34;85.16
75221;BME280;63802;53.232;6.570;2022-11-27T09:09:14;102151.16;;;5.42;84.67
75221;BME280;63802;53.232;6.570;2022-11-27T09:11:40;102154.66;;;5.42;84.64
75221;BME280;63802;53.232;6.570;2022-11-27T09:14:06;102168.72;;;5.45;84.94
75221;BME280;63802;53.232;6.570;2022-11-27T09:16:33;102145.22;;;5.40;84.98
75221;BME280;63802;53.232;6.570;2022-11-27T09:18:58;102160.28;;;5.46;85.21
75221;BME280;63802;53.232;6.570;2022-11-27T09:21:25;102168.72;;;5.45;84.90
75221;BME280;63802;53.232;6.570;2022-11-27T09:23:53;102169.50;;;5.45;85.27
75221;BME280;63802;53.232;6.570;2022-11-27T09:26:19;102160.06;;;5.42;85.05
75221;BME280;63802;53.232;6.570;2022-11-27T09:28:45;102157.44;;;5.37;85.06
75221;BME280;63802;53.232;6.570;2022-11-27T09:31:13;102162.84;;;5.37;85.66
75221;BME280;63802;53.232;6.570;2022-11-27T09:33:40;102160.66;;;5.39;85.36
75221;BME280;63802;53.232;6.570;2022-11-27T09:36:08;102170.38;;;5.40;85.69
75221;BME280;63802;53.232;6.570;2022-11-27T09:38:34;102171.28;;;5.36;86.20
75221;BME280;63802;53.232;6.570;2022-11-27T09:43:41;102173.09;;;5.40;85.86
75221;BME280;63802;53.232;6.570;2022-11-27T09:46:13;102164.25;;;5.35;86.16
75221;BME280;63802;53.232;6.570;2022-11-27T09:48:45;102160.50;;;5.31;86.73
75221;BME280;63802;53.232;6.570;2022-11-27T09:51:30;102154.91;;;5.27;87.19
75221;BME280;63802;53.232;6.570;2022-11-27T09:54:22;102182.66;;;5.33;87.37
75221;BME280;63802;53.232;6.570;2022-11-27T09:56:50;102165.66;;;5.32;87.11
75221;BME280;63802;53.232;6.570;2022-11-27T09:59:21;102168.63;;;5.31;87.55
75221;BME280;63802;53.232;6.570;2022-11-27T10:01:49;102154.41;;;5.25;87.64
75221;BME280;63802;53.232;6.570;2022-11-27T10:04:17;102151.59;;;5.30;87.58
75221;BME280;63802;53.232;6.570;2022-11-27T10:09:52;102157.00;;;5.30;87.89
75221;BME280;63802;53.232;6.570;2022-11-27T10:12:30;102161.84;;;5.33;88.23
75221;BME280;63802;53.232;6.570;2022-11-27T10:17:51;102160.25;;;5.32;88.69
75221;BME280;63802;53.232;6.570;2022-11-27T10:23:50;102139.38;;;5.33;88.41
75221;BME280;63802;53.232;6.570;2022-11-27T10:26:28;102133.75;;;5.29;88.73
75221;BME280;63802;53.232;6.570;2022-11-27T10:31:49;102128.34;;;5.29;89.03
75221;BME280;63802;53.232;6.570;2022-11-27T10:34:41;102128.34;;;5.29;89.65
75221;BME280;63802;53.232;6.570;2022-11-27T10:37:17;102124.53;;;5.30;89.52
75221;BME280;63802;53.232;6.570;2022-11-27T10:39:53;102113.69;;;5.30;89.60
75221;BME280;63802;53.232;6.570;2022-11-27T10:42:25;102126.16;;;5.31;89.47
75221;BME280;63802;53.232;6.570;2022-11-27T10:45:02;102116.94;;;5.32;89.55
75221;BME280;63802;53.232;6.570;2022-11-27T10:47:29;102113.94;;;5.34;89.90
75221;BME280;63802;53.232;6.570;2022-11-27T10:49:54;102097.47;;;5.30;90.01
75221;BME280;63802;53.232;6.570;2022-11-27T10:52:22;102095.28;;;5.32;89.70
75221;BME280;63802;53.232;6.570;2022-11-27T10:54:59;102086.28;;;5.37;89.71
75221;BME280;63802;53.232;6.570;2022-11-27T11:00:20;102091.38;;;5.38;89.86
75221;BME280;63802;53.232;6.570;2022-11-27T11:02:47;102078.94;;;5.37;90.11
75221;BME280;63802;53.232;6.570;2022-11-27T11:05:22;102074.06;;;5.39;90.59
75221;BME280;63802;53.232;6.570;2022-11-27T11:08:16;102067.25;;;5.42;90.58
75221;BME280;63802;53.232;6.570;2022-11-27T11:10:44;102063.22;;;5.39;90.32
75221;BME280;63802;53.232;6.570;2022-11-27T11:13:15;102064.81;;;5.40;90.15
75221;BME280;63802;53.232;6.570;2022-11-27T11:15:50;102055.63;;;5.41;90.52
75221;BME280;63802;53.232;6.570;2022-11-27T11:18:21;102048.56;;;5.40;90.64
75221;BME280;63802;53.232;6.570;2022-11-27T11:20:49;102060.22;;;5.41;90.42
75221;BME280;63802;53.232;6.570;2022-11-27T11:23:34;102049.97;;;5.38;90.53
75221;BME280;63802;53.232;6.570;2022-11-27T11:26:14;102038.34;;;5.37;90.82
75221;BME280;63802;53.232;6.570;2022-11-27T11:28:53;102026.94;;;5.40;91.06
75221;BME280;63802;53.232;6.570;2022-11-27T11:31:30;102037.16;;;5.43;90.93
75221;BME280;63802;53.232;6.570;2022-11-27T11:34:02;102023.72;;;5.38;91.14
75221;BME280;63802;53.232;6.570;2022-11-27T11:36:29;102013.97;;;5.37;90.63
75221;BME280;63802;53.232;6.570;2022-11-27T11:38:55;102022.53;;;5.45;90.87
75221;BME280;63802;53.232;6.570;2022-11-27T11:41:21;102023.63;;;5.43;90.88
75221;BME280;63802;53.232;6.570;2022-11-27T11:43:59;102017.22;;;5.39;90.90
75221;BME280;63802;53.232;6.570;2022-11-27T11:46:31;102022.22;;;5.46;90.58
75221;BME280;63802;53.232;6.570;2022-11-27T11:49:16;102013.88;;;5.42;91.10
75221;BME280;63802;53.232;6.570;2022-11-27T12:00:22;101991.47;;;5.42;91.20
75221;BME280;63802;53.232;6.570;2022-11-27T12:06:04;101989.44;;;5.48;91.42
75221;BME280;63802;53.232;6.570;2022-11-27T12:11:26;101987.22;;;5.50;91.12
75221;BME280;63802;53.232;6.570;2022-11-27T12:14:17;101974.22;;;5.52;91.11
75221;BME280;63802;53.232;6.570;2022-11-27T12:24:58;101962.09;;;5.49;91.57
75221;BME280;63802;53.232;6.570;2022-11-27T12:28:02;101962.78;;;5.55;91.25
75221;BME280;63802;53.232;6.570;2022-11-27T12:33:38;101948.16;;;5.56;91.21
75221;BME280;63802;53.232;6.570;2022-11-27T12:39:18;101930.19;;;5.60;91.22
75221;BME280;63802;53.232;6.570;2022-11-27T12:50:08;101918.06;;;5.71;91.76
75221;BME280;63802;53.232;6.570;2022-11-27T12:52:38;101905.81;;;5.73;91.36
75221;BME280;63802;53.232;6.570;2022-11-27T12:55:09;101881.94;;;5.62;91.43
75221;BME280;63802;53.232;6.570;2022-11-27T12:57:43;101893.59;;;5.62;91.30
75221;BME280;63802;53.232;6.570;2022-11-27T13:00:29;101898.41;;;5.65;91.49
75221;BME280;63802;53.232;6.570;2022-11-27T13:03:06;101881.94;;;5.62;91.80
75221;BME280;63802;53.232;6.570;2022-11-27T13:05:46;101880.84;;;5.63;91.96
75221;BME280;63802;53.232;6.570;2022-11-27T13:08:27;101888.75;;;5.59;91.56
75221;BME280;63802;53.232;6.570;2022-11-27T13:11:03;101865.94;;;5.52;91.43
75221;BME280;63802;53.232;6.570;2022-11-27T13:13:33;101865.22;;;5.60;91.38
75221;BME280;63802;53.232;6.570;2022-11-27T13:16:10;101864.13;;;5.61;91.23
75221;BME280;63802;53.232;6.570;2022-11-27T13:18:40;101861.41;;;5.61;91.48
75221;BME280;63802;53.232;6.570;2022-11-27T13:21:19;101863.00;;;5.62;91.21
75221;BME280;63802;53.232;6.570;2022-11-27T13:23:48;101859.91;;;5.55;91.35
75221;BME280;63802;53.232;6.570;2022-11-27T13:26:23;101860.09;;;5.58;91.59
75221;BME280;63802;53.232;6.570;2022-11-27T13:28:58;101840.84;;;5.60;91.15
75221;BME280;63802;53.232;6.570;2022-11-27T13:31:29;101844.47;;;5.55;91.52
75221;BME280;63802;53.232;6.570;2022-11-27T13:34:02;101857.09;;;5.60;91.49
75221;BME280;63802;53.232;6.570;2022-11-27T13:36:39;101860.91;;;5.59;91.36
75221;BME280;63802;53.232;6.570;2022-11-27T13:39:17;101845.88;;;5.53;91.17
75221;BME280;63802;53.232;6.570;2022-11-27T13:41:46;101854.69;;;5.58;91.24
75221;BME280;63802;53.232;6.570;2022-11-27T13:44:25;101840.44;;;5.53;91.06
75221;BME280;63802;53.232;6.570;2022-11-27T13:46:54;101836.75;;;5.49;91.21
75221;BME280;63802;53.232;6.570;2022-11-27T13:49:27;101845.66;;;5.63;90.86
75221;BME280;63802;53.232;6.570;2022-11-27T13:52:07;101853.28;;;5.61;90.54
75221;BME280;63802;53.232;6.570;2022-11-27T13:54:33;101860.28;;;5.62;90.71
75221;BME280;63802;53.232;6.570;2022-11-27T13:57:12;101837.63;;;5.58;90.55
75221;BME280;63802;53.232;6.570;2022-11-27T13:59:39;101844.56;;;5.64;90.82
75221;BME280;63802;53.232;6.570;2022-11-27T14:02:07;101848.84;;;5.65;90.66
75221;BME280;63802;53.232;6.570;2022-11-27T14:04:33;101839.44;;;5.62;90.39
75221;BME280;63802;53.232;6.570;2022-11-27T14:07:05;101841.84;;;5.64;90.72
75221;BME280;63802;53.232;6.570;2022-11-27T14:09:54;101824.00;;;5.63;90.38
75221;BME280;63802;53.232;6.570;2022-11-27T14:12:31;101825.88;;;5.62;90.29
75221;BME280;63802;53.232;6.570;2022-11-27T14:15:06;101817.28;;;5.60;90.35
75221;BME280;63802;53.232;6.570;2022-11-27T14:17:40;101806.44;;;5.60;90.33
75221;BME280;63802;53.232;6.570;2022-11-27T14:20:28;101795.41;;;5.57;90.68
75221;BME280;63802;53.232;6.570;2022-11-27T14:22:56;101788.72;;;5.54;90.47
75221;BME280;63802;53.232;6.570;2022-11-27T14:30:45;101787.59;;;5.55;90.72
75221;BME280;63802;53.232;6.570;2022-11-27T14:33:23;101778.50;;;5.51;90.79